Hundvaag 1 weather for Apr 2000
Month no. 154
Obs.
Da.
Temp. Dew Point Precip. Wind
Speed
Wind gusts Cloud cover Press. Humidity Wind dir. Sunny OPT
01.04.2000 5,0   0,0     2 1008,9     1  
02.04.2000 4,3   8,2     0 1010,1        
03.04.2000 1,1   22,8     0 1010,1        
04.04.2000 2,5   0,3     0 1007,9     1  
05.04.2000 -0,5   0,0     10 1012,0     1  
06.04.2000 5,7   1,3     0 1019,6     1  
07.04.2000 6,4   0,2     0 1023,9     1  
08.04.2000 5,1   2,8     0 1020,1     1  
09.04.2000 3,4   2,4     10 1021,9     1  
10.04.2000 3,9   0,0     2 1019,5        
11.04.2000 4,7   1,0     0 1009,3        
12.04.2000 4,2   0,1     7 1008,9     1  
13.04.2000 6,3   0,1     0 1004,1     1  
14.04.2000 5,9   1,1     0 1003,2        
15.04.2000 2,9   4,3     3 1005,9     1  
16.04.2000 7,7   0,0     0 1006,7        
17.04.2000 3,8   0,0     1 1006,5        
18.04.2000 7,1   5,2     0 1005,6     1  
19.04.2000 7,1   4,2     8 1013,3     1  
20.04.2000 9,9   0,0     8 1012,9     1  
21.04.2000 10,2   13,9     0 1010,9        
22.04.2000 7,6   15,9     4 1013,6     1  
23.04.2000 8,0   0,3     0 1013,7        
24.04.2000 6,8   0,0     0 1013,7     1  
25.04.2000 2,3   0,0     10 1014,7     1  
26.04.2000 7,5   3,0     0 1014,8        
27.04.2000 10,4   3,4     0 1013,9     1  
28.04.2000 9,9   0,7     0 1016,0     1  
29.04.2000 14,3   0,0     4 1015,9     1  
30.04.2000 15,1   0,0     10 1017,5     1  
                       
Avrg/Sum 6,3   91,2     2,6 1012,5     20